Wetterdaten: aktuell Donnerstag, 19.10.2017 22:05
Datum Zeit Luft-Temp. Wasser Feuchte A. Luftdruck Regen Wind Richtung Richtung Windben
19.10.2017 22:05 10.9 C 15.6 C 95 % 1012.9 hPa 0.0 l/m 0.0 km/h (0 Bft) W-NW 296 0.0 km/h (0 Bft)
19.10.2017 21:05 12.3 C 16.1 C 94 % 1012.6 hPa 0.0 l/m 0.0 km/h (0 Bft) W-NW 296 0.0 km/h (0 Bft)
19.10.2017 20:05 13.1 C 16.1 C 91 % 1012.3 hPa 0.0 l/m 0.0 km/h (0 Bft) W-NW 296 0.0 km/h (0 Bft)
19.10.2017 19:05 14.8 C 16.1 C 89 % 1012.2 hPa 0.0 l/m 0.0 km/h (0 Bft) W-NW 296 0.0 km/h (0 Bft)
19.10.2017 18:05 17.7 C 16.1 C 73 % 1011.6 hPa 0.0 l/m 0.0 km/h (0 Bft) W-NW 296 0.0 km/h (0 Bft)
19.10.2017 17:05 18.8 C 16.1 C 65 % 1011.5 hPa 0.0 l/m 9.5 km/h (2 Bft) W-NW 289 11.6 km/h (2 Bft)
19.10.2017 16:05 18.7 C 16.1 C 60 % 1012.3 hPa 0.0 l/m 10.2 km/h (2 Bft) NW 315 13.0 km/h (3 Bft)
19.10.2017 15:05 17.9 C 16.1 C 70 % 1012.9 hPa 0.0 l/m 10.2 km/h (2 Bft) NW 308 13.0 km/h (3 Bft)
19.10.2017 14:05 16.7 C 16.1 C 67 % 1013.5 hPa 0.0 l/m 0.9 km/h (0 Bft) N-NW 334 5.8 km/h (2 Bft)
19.10.2017 13:05 14.7 C 15.6 C 81 % 1015.1 hPa 0.0 l/m 0.0 km/h (0 Bft) N-NW 334 0.0 km/h (0 Bft)
19.10.2017 12:05 13.6 C 15.6 C 83 % 1015.5 hPa 0.0 l/m 10.2 km/h (2 Bft) N-NW 343 11.6 km/h (2 Bft)
19.10.2017 11:05 12.4 C 15.6 C 90 % 1015.5 hPa 0.0 l/m 12.5 km/h (2 Bft) N-NW 340 14.5 km/h (3 Bft)
19.10.2017 10:05 11.5 C 16.1 C 93 % 1015.4 hPa 0.0 l/m 11.5 km/h (2 Bft) N-NW 337 15.9 km/h (3 Bft)
19.10.2017 09:05 9.6 C 16.1 C 98 % 1015.1 hPa 0.0 l/m 0.0 km/h (0 Bft) O 101 0.0 km/h (0 Bft)
19.10.2017 08:05 8.6 C 16.1 C 99 % 1014.6 hPa 0.0 l/m 0.0 km/h (0 Bft) N 0 0.0 km/h (0 Bft)
19.10.2017 07:05 8.6 C 16.1 C 99 % 1014.8 hPa 0.0 l/m 0.0 km/h (0 Bft) NW 325 0.0 km/h (0 Bft)
19.10.2017 06:05 8.3 C 16.1 C 99 % 1015.0 hPa 0.0 l/m 0.0 km/h (0 Bft) NW 325 0.0 km/h (0 Bft)
19.10.2017 05:27 8.6 C 16.1 C 98 % 1016.9 hPa 0.0 l/m 0.0 km/h (0 Bft) S 180 0.0 km/h (0 Bft)
19.10.2017 05:15 9.2 C 16.1 C 99 % 1017.1 hPa 0.0 l/m 0.0 km/h (0 Bft) S 180 0.0 km/h (0 Bft)
19.10.2017 05:03 8.8 C 16.1 C 100 % 1017.2 hPa 0.0 l/m 8.7 km/h (2 Bft) NW 315 11.3 km/h (2 Bft)
19.10.2017 04:51 7.9 C 16.1 C 99 % 1017.0 hPa 0.0 l/m 0.0 km/h (0 Bft) S 180 0.0 km/h (0 Bft)
19.10.2017 04:39 8.5 C 16.1 C 98 % 1016.9 hPa 0.0 l/m 0.0 km/h (0 Bft) S 180 0.0 km/h (0 Bft)
19.10.2017 04:27 9.3 C 16.1 C 100 % 1016.9 hPa 0.0 l/m 11.6 km/h (2 Bft) W-NW 292 14.5 km/h (3 Bft)
19.10.2017 04:15 8.6 C 16.1 C 100 % 1016.9 hPa 0.0 l/m 0.0 km/h (0 Bft) S 180 0.0 km/h (0 Bft)
19.10.2017 04:03 7.6 C 16.1 C 99 % 1016.9 hPa 0.0 l/m 0.0 km/h (0 Bft) S 180 0.0 km/h (0 Bft)
19.10.2017 03:51 7.6 C 16.1 C 98 % 1016.9 hPa 0.0 l/m 0.0 km/h (0 Bft) S 180 0.0 km/h (0 Bft)
19.10.2017 03:39 7.7 C 16.1 C 97 % 1016.9 hPa 0.0 l/m 0.0 km/h (0 Bft) S 180 0.0 km/h (0 Bft)
19.10.2017 03:27 7.7 C 16.1 C 97 % 1017.0 hPa 0.0 l/m 0.0 km/h (0 Bft) S 180 0.0 km/h (0 Bft)
19.10.2017 03:15 7.8 C 16.1 C 97 % 1017.1 hPa 0.0 l/m 0.0 km/h (0 Bft) S 180 0.0 km/h (0 Bft)
19.10.2017 03:03 8.3 C 16.1 C 97 % 1017.1 hPa 0.0 l/m 0.0 km/h (0 Bft) S 180 0.0 km/h (0 Bft)
19.10.2017 02:51 8.6 C 16.1 C 97 % 1017.2 hPa 0.0 l/m 0.0 km/h (0 Bft) S 180 0.0 km/h (0 Bft)
19.10.2017 02:39 8.5 C 16.1 C 97 % 1017.3 hPa 0.0 l/m 0.0 km/h (0 Bft) S 180 0.0 km/h (0 Bft)
19.10.2017 02:27 8.2 C 16.1 C 97 % 1017.4 hPa 0.0 l/m 0.0 km/h (0 Bft) S 180 0.0 km/h (0 Bft)
19.10.2017 02:15 8.4 C 16.1 C 96 % 1017.3 hPa 0.0 l/m 0.0 km/h (0 Bft) S 180 0.0 km/h (0 Bft)
19.10.2017 02:03 8.8 C 16.1 C 96 % 1017.2 hPa 0.0 l/m 0.0 km/h (0 Bft) S 180 0.0 km/h (0 Bft)
19.10.2017 01:51 9.3 C 16.1 C 97 % 1017.3 hPa 0.0 l/m 0.0 km/h (0 Bft) S 180 0.0 km/h (0 Bft)
19.10.2017 01:39 9.3 C 16.1 C 96 % 1017.3 hPa 0.0 l/m 0.0 km/h (0 Bft) S 180 0.0 km/h (0 Bft)
19.10.2017 01:27 9.3 C 16.1 C 96 % 1017.4 hPa 0.0 l/m 0.0 km/h (0 Bft) S 180 0.0 km/h (0 Bft)
19.10.2017 01:15 9.1 C 16.1 C 95 % 1017.6 hPa 0.0 l/m 0.0 km/h (0 Bft) S 180 0.0 km/h (0 Bft)
19.10.2017 01:03 9.1 C 16.1 C 95 % 1017.5 hPa 0.0 l/m 0.0 km/h (0 Bft) S 180 0.0 km/h (0 Bft)
19.10.2017 00:51 9.4 C 16.1 C 94 % 1017.4 hPa 0.0 l/m 0.0 km/h (0 Bft) S 180 0.0 km/h (0 Bft)
19.10.2017 00:39 9.2 C 16.1 C 95 % 1017.4 hPa 0.0 l/m 0.0 km/h (0 Bft) S 180 0.0 km/h (0 Bft)
19.10.2017 00:27 9.2 C 16.1 C 94 % 1017.3 hPa 0.0 l/m 0.0 km/h (0 Bft) S 180 0.0 km/h (0 Bft)
19.10.2017 00:15 9.6 C 16.1 C 94 % 1017.2 hPa 0.0 l/m 0.0 km/h (0 Bft) S 180 0.0 km/h (0 Bft)
19.10.2017 00:03 10.2 C 16.1 C 93 % 1017.3 hPa 0.0 l/m 0.0 km/h (0 Bft) S 180 0.0 km/h (0 Bft)
18.10.2017 23:51 10.7 C 16.1 C 93 % 1017.2 hPa 0.0 l/m 0.0 km/h (0 Bft) S 180 0.0 km/h (0 Bft)
18.10.2017 23:39 10.9 C 16.1 C 93 % 1017.2 hPa 0.0 l/m 0.0 km/h (0 Bft) S 180 0.0 km/h (0 Bft)
18.10.2017 23:27 10.6 C 16.1 C 92 % 1017.1 hPa 0.0 l/m 0.0 km/h (0 Bft) S 180 0.0 km/h (0 Bft)
18.10.2017 23:15 10.5 C 16.1 C 92 % 1017.1 hPa 0.0 l/m 0.0 km/h (0 Bft) S 180 0.0 km/h (0 Bft)
18.10.2017 23:03 10.8 C 16.1 C 91 % 1017.0 hPa 0.0 l/m 0.0 km/h (0 Bft) S 180 0.0 km/h (0 Bft)
18.10.2017 23:00 10.9 C 16.1 C 91 % 1017.0 hPa 0.0 l/m 0.0 km/h (0 Bft) S 180 0.0 km/h (0 Bft)
_ Min-Zeit 03:53 09:35 16:05 17:35 - 23:00 - - 23:00
Minimum _ 7.4 C 15.6 C 60 % 1011.3 hPa - 0.0 km/h (0 Bft) - - 0.0 km/h (0 Bft)
_ Max-Zeit 17:15 23:00 04:12 01:15 23:00 15:25 - - 04:28
Maximum _ 18.9 C 16.1 C 100 % 1017.6 hPa 0.0 l/m 14.2 km/h
N-NW (3 Bft)
- - 17.7 km/h
SO (3 Bft)
Durchschnitt _ 12.1 C 16.0 C 88 % 1014.9 hPa #0.0 l/m 2.7 km/h (1 Bft) N-NW - 3.6 km/h (1 Bft)